Riachao, Brazil
Current Conditions -  °F | °C
As of 11:00 PM on Sunday 21 Dec 2014 (Local Time) from SBIZ Reporting Station
Few Clouds Few Clouds  
Wind Chill: 81°   Ceiling: Unl
Heat Index: 87°   Visibility: 6mi
Dew Point: 77°   Wind: 0mph
Humidity: 89%   Direction: NA
Pressure: 29.85"   Gusts: NA
Location:  7.36°S, 46.62°W
Report Text: SBIZ 220200Z 00000KT 9999 FEW040 27/25 Q1011
Loading
Personal Weather Stations






























Interactive Weather Map New forecast layout! Learn more

10-Day Weather Forecast

Advertisements
Track Severe Weather on mobile